Time;durP1;ratioP1;P1;durP2;ratioP2;P2;SDS_P1;SDS_P2;PMS_P1;PMS_P2;Temp;Humidity;BMP_temperature;BMP_pressure;BME280_temperature;BME280_humidity;BME280_pressure;Samples;Min_cycle;Max_cycle;Signal;HPM_P1;HPM_P2
2023/07/13 00:00:19;;;;;;;;;;;;;;;;;;5052059;28;20271;-65
2023/07/13 00:02:47;;;;;;;;;;;;;;;;;;5052273;28;19924;-64
2023/07/13 00:05:13;;;;;;;;;;;;;;;;;;5051627;28;19924;-63
2023/07/13 00:07:40;;;;;;;;;;;;;;;;;;5052209;28;19929;-63
2023/07/13 00:10:08;;;;;;;;;;;;;;;;;;5051484;28;19931;-65
2023/07/13 00:12:35;;;;;;;;;;;;;;;;;;5051781;28;19924;-64
2023/07/13 00:15:02;;;;;;;;;;;;;;;;;;5051272;28;20024;-65
2023/07/13 00:17:29;;;;;;;;;;;;;;;;;;5051023;28;19925;-65
2023/07/13 00:19:58;;;;;;;;;;;;;;;;;;5050956;28;19931;-65
2023/07/13 00:22:25;;;;;;;;;;;;;;;;;;5051736;28;20066;-65
2023/07/13 00:24:51;;;;;;;;;;;;;;;;;;5051218;28;19929;-65
2023/07/13 00:27:18;;;;;;;;;;;;;;;;;;5051910;28;19929;-64
2023/07/13 00:29:45;;;;;;;;;;;;;;;;;;5051370;28;19925;-64
2023/07/13 00:32:12;;;;;;;;;;;;;;;;;;5051931;28;19970;-64
2023/07/13 00:34:38;;;;;;;;;;;;;;;;;;5051976;28;19932;-64
2023/07/13 00:37:07;;;;;;;;;;;;;;;;;;5051470;28;19924;-63
2023/07/13 00:39:34;;;;;;;;;;;;;;;;;;5053332;28;20019;-65
2023/07/13 00:42:01;;;;;;;;;;;;;;;;;;5055273;28;20180;-64
2023/07/13 00:44:27;;;;;;;;;;;;;;;;;;5055533;28;19955;-64
2023/07/13 00:46:55;;;;;;;;;;;;;;;;;;5055037;28;19948;-64
2023/07/13 00:49:23;;;;;;;;;;;;;;;;;;5055001;28;19925;-65
2023/07/13 00:51:51;;;;;;;;;;;;;;;;;;5054914;28;19924;-65
2023/07/13 00:54:21;;;;;;;;;;;;;;;;;;5055343;28;19931;-65
2023/07/13 00:56:49;;;;;;;;;;;;;;;;;;5054326;28;19925;-64
2023/07/13 00:59:17;;;;;;;;;;;;;;;;;;5054743;28;19947;-64
2023/07/13 01:01:44;;;;;;;;;;;;;;;;;;5053967;28;19925;-65
2023/07/13 01:04:10;;;;;;;;;;;;;;;;;;5054495;28;19931;-64
2023/07/13 01:06:37;;;;;;;;;;;;;;;;;;5054645;28;19935;-65
2023/07/13 01:09:05;;;;;;;;;;;;;;;;;;5054594;28;20424;-65
2023/07/13 01:11:33;;;;;;;;;;;;;;;;;;5054062;28;20009;-63
2023/07/13 01:14:01;;;;;;;;;;;;;;;;;;5054219;28;19924;-65
2023/07/13 01:16:28;;;;;;;;;;;;;;;;;;5054424;28;19983;-65
2023/07/13 01:18:57;;;;;;;;;;;;;;;;;;5053898;28;19925;-64
2023/07/13 01:21:25;;;;;;;;;;;;;;;;;;5033888;28;19932;-65
2023/07/13 01:23:52;;;;;;;;;;;;;;;;;;5034238;28;19952;-64
2023/07/13 01:26:18;;;;;;;;;;;;;;;;;;5034489;28;19925;-65
2023/07/13 01:28:45;;;;;;;;;;;;;;;;;;5033382;28;20412;-63
2023/07/13 01:31:12;;;;;;;;;;;;;;;;;;5033889;28;20007;-64
2023/07/13 01:33:39;;;;;;;;;;;;;;;;;;5033966;28;19935;-64
2023/07/13 01:36:05;;;;;;;;;;;;;;;;;;5034305;28;19932;-64
2023/07/13 01:38:34;;;;;;;;;;;;;;;;;;5033444;28;19935;-65
2023/07/13 01:41:00;;;;;;;;;;;;;;;;;;5033834;28;20338;-64
2023/07/13 01:43:27;;;;;;;;;;;;;;;;;;5034194;28;19925;-64
2023/07/13 01:45:53;;;;;;;;;;;;;;;;;;5033703;28;19925;-64
2023/07/13 01:48:20;;;;;;;;;;;;;;;;;;5033237;28;19926;-65
2023/07/13 01:50:46;;;;;;;;;;;;;;;;;;5033169;28;19929;-65
2023/07/13 01:53:12;;;;;;;;;;;;;;;;;;5033513;28;19933;-65
2023/07/13 01:55:40;;;;;;;;;;;;;;;;;;5033585;28;19947;-64
2023/07/13 01:58:07;;;;;;;;;;;;;;;;;;5034491;28;19925;-62
2023/07/13 02:00:33;;;;;;;;;;;;;;;;;;5033456;28;19975;-64
2023/07/13 02:03:00;;;;;;;;;;;;;;;;;;5033973;28;20055;-64
2023/07/13 02:05:26;;;;;;;;;;;;;;;;;;5033397;28;19931;-64
2023/07/13 02:07:53;;;;;;;;;;;;;;;;;;5033908;28;20293;-63
2023/07/13 02:10:19;;;;;;;;;;;;;;;;;;5032610;28;19932;-63
2023/07/13 02:12:49;;;;;;;;;;;;;;;;;;5034020;28;19925;-64
2023/07/13 02:15:15;;;;;;;;;;;;;;;;;;5033588;28;20302;-64
2023/07/13 02:17:42;;;;;;;;;;;;;;;;;;5033700;28;20020;-65
2023/07/13 02:20:09;;;;;;;;;;;;;;;;;;5032721;28;20294;-67
2023/07/13 02:22:35;;;;;;;;;;;;;;;;;;5033086;28;20015;-62
2023/07/13 02:25:02;;;;;;;;;;;;;;;;;;5032911;28;19936;-66
2023/07/13 02:27:29;;;;;;;;;;;;;;;;;;5040585;28;20028;-66
2023/07/13 02:29:56;;;;;;;;;;;;;;;;;;5053112;28;20309;-65
2023/07/13 02:32:24;;;;;;;;;;;;;;;;;;5052735;28;19931;-66
2023/07/13 02:34:51;;;;;;;;;;;;;;;;;;5052998;28;19925;-65
2023/07/13 02:37:17;;;;;;;;;;;;;;;;;;5052182;28;19947;-66
2023/07/13 02:39:44;;;;;;;;;;;;;;;;;;5052495;28;19925;-66
2023/07/13 02:42:10;;;;;;;;;;;;;;;;;;5052290;28;20016;-65
2023/07/13 02:44:36;;;;;;;;;;;;;;;;;;5052495;28;19925;-65
2023/07/13 02:47:04;;;;;;;;;;;;;;;;;;5052470;28;19936;-65
2023/07/13 02:49:30;;;;;;;;;;;;;;;;;;5052275;28;19931;-65
2023/07/13 02:51:57;;;;;;;;;;;;;;;;;;5052000;28;19931;-66
2023/07/13 02:54:24;;;;;;;;;;;;;;;;;;5052287;28;19925;-65
2023/07/13 02:56:50;;;;;;;;;;;;;;;;;;5052385;28;19931;-66
2023/07/13 02:59:17;;;;;;;;;;;;;;;;;;5052098;28;19972;-66
2023/07/13 03:01:43;;;;;;;;;;;;;;;;;;5052084;28;19925;-66
2023/07/13 03:04:12;;;;;;;;;;;;;;;;;;5052490;28;19924;-66
2023/07/13 03:06:38;;;;;;;;;;;;;;;;;;5052681;28;19972;-66
2023/07/13 03:09:04;;;;;;;;;;;;;;;;;;5052031;28;20298;-66
2023/07/13 03:11:31;;;;;;;;;;;;;;;;;;5052521;28;19944;-65
2023/07/13 03:13:58;;;;;;;;;;;;;;;;;;5052078;28;20015;-66
2023/07/13 03:16:25;;;;;;;;;;;;;;;;;;5052447;28;19951;-65
2023/07/13 03:18:51;;;;;;;;;;;;;;;;;;5051577;28;19932;-65
2023/07/13 03:21:19;;;;;;;;;;;;;;;;;;5052054;28;19979;-66
2023/07/13 03:23:45;;;;;;;;;;;;;;;;;;5051777;28;20385;-66
2023/07/13 03:26:13;;;;;;;;;;;;;;;;;;5052348;28;20015;-66
2023/07/13 03:28:40;;;;;;;;;;;;;;;;;;5050588;28;19924;-66
2023/07/13 03:31:07;;;;;;;;;;;;;;;;;;5051924;28;19925;-65
2023/07/13 03:33:34;;;;;;;;;;;;;;;;;;5051961;28;19925;-65
2023/07/13 03:36:01;;;;;;;;;;;;;;;;;;5051547;28;19932;-66
2023/07/13 03:38:28;;;;;;;;;;;;;;;;;;5051636;28;19924;-66
2023/07/13 03:40:55;;;;;;;;;;;;;;;;;;5050816;28;19925;-65
2023/07/13 03:43:21;;;;;;;;;;;;;;;;;;5051891;28;20008;-66
2023/07/13 03:45:48;;;;;;;;;;;;;;;;;;5063403;22;20321;-68
2023/07/13 03:48:14;;;;;;;;;;;;;;;;;;5050382;28;19925;-69
2023/07/13 03:50:40;;;;;;;;;;;;;;;;;;5050072;28;19924;-69
2023/07/13 03:53:07;;;;;;;;;;;;;;;;;;5050726;28;19925;-69
2023/07/13 03:55:35;;;;;;;;;;;;;;;;;;5050328;28;20301;-68
2023/07/13 03:58:21;;;;;;;;;;;;;;;;;;5050537;28;19925;-69
2023/07/13 04:00:48;;;;;;;;;;;;;;;;;;5049348;28;20397;-69
2023/07/13 04:03:14;;;;;;;;;;;;;;;;;;5050797;28;19931;-69
2023/07/13 04:05:41;;;;;;;;;;;;;;;;;;5049995;28;20015;-69
2023/07/13 04:08:07;;;;;;;;;;;;;;;;;;5050911;28;19924;-69
2023/07/13 04:10:35;;;;;;;;;;;;;;;;;;5050266;28;19925;-69
2023/07/13 04:13:01;;;;;;;;;;;;;;;;;;5050118;28;20028;-69
2023/07/13 04:15:30;;;;;;;;;;;;;;;;;;5053857;28;19925;-69
2023/07/13 04:17:56;;;;;;;;;;;;;;;;;;5053644;28;19929;-69
2023/07/13 04:20:23;;;;;;;;;;;;;;;;;;5053818;28;19924;-69
2023/07/13 04:22:50;;;;;;;;;;;;;;;;;;5053721;28;20108;-69
2023/07/13 04:25:16;;;;;;;;;;;;;;;;;;5053966;28;19935;-70
2023/07/13 04:27:44;;;;;;;;;;;;;;;;;;5053571;28;20297;-69
2023/07/13 04:30:11;;;;;;;;;;;;;;;;;;5053642;28;19924;-69
2023/07/13 04:32:37;;;;;;;;;;;;;;;;;;5052202;28;19925;-69
2023/07/13 04:35:04;;;;;;;;;;;;;;;;;;5053841;28;19932;-69
2023/07/13 04:37:30;;;;;;;;;;;;;;;;;;5053392;28;19929;-69
2023/07/13 04:39:57;;;;;;;;;;;;;;;;;;5053319;28;19924;-69
2023/07/13 04:42:23;;;;;;;;;;;;;;;;;;5053246;28;19940;-69
2023/07/13 04:44:52;;;;;;;;;;;;;;;;;;5053998;28;19947;-69
2023/07/13 04:47:18;;;;;;;;;;;;;;;;;;5053401;28;19925;-68
2023/07/13 04:49:45;;;;;;;;;;;;;;;;;;5052933;28;19931;-69
2023/07/13 04:52:12;;;;;;;;;;;;;;;;;;5053953;28;19924;-69
2023/07/13 04:54:38;;;;;;;;;;;;;;;;;;5053209;28;20421;-69
2023/07/13 04:57:06;;;;;;;;;;;;;;;;;;5053459;28;19924;-69
2023/07/13 04:59:32;;;;;;;;;;;;;;;;;;5052700;28;19932;-69
2023/07/13 05:02:01;;;;;;;;;;;;;;;;;;5053514;28;19925;-69
2023/07/13 05:04:27;;;;;;;;;;;;;;;;;;5052739;28;19929;-69
2023/07/13 05:06:53;;;;;;;;;;;;;;;;;;5053222;28;19924;-69
2023/07/13 05:09:20;;;;;;;;;;;;;;;;;;5053034;28;20015;-69
2023/07/13 05:11:46;;;;;;;;;;;;;;;;;;5053292;28;20298;-69
2023/07/13 05:14:13;;;;;;;;;;;;;;;;;;5052922;28;19947;-69
2023/07/13 05:16:39;;;;;;;;;;;;;;;;;;5053379;28;19925;-68
2023/07/13 05:19:07;;;;;;;;;;;;;;;;;;5051750;28;19925;-69
2023/07/13 05:21:33;;;;;;;;;;;;;;;;;;5052538;28;19932;-69
2023/07/13 05:23:59;;;;;;;;;;;;;;;;;;5052602;28;19925;-69
2023/07/13 05:26:26;;;;;;;;;;;;;;;;;;5052306;28;20310;-68
2023/07/13 05:28:52;;;;;;;;;;;;;;;;;;5052748;28;19925;-69
2023/07/13 05:31:19;;;;;;;;;;;;;;;;;;5052150;28;20408;-69
2023/07/13 05:33:45;;;;;;;;;;;;;;;;;;5052888;28;19925;-69
2023/07/13 05:36:13;;;;;;;;;;;;;;;;;;5052316;28;20011;-68
2023/07/13 05:38:40;;;;;;;;;;;;;;;;;;5052590;28;19925;-69
2023/07/13 05:41:06;;;;;;;;;;;;;;;;;;5050441;28;19951;-69
2023/07/13 05:43:33;;;;;;;;;;;;;;;;;;5052596;28;19924;-69
2023/07/13 05:45:59;;;;;;;;;;;;;;;;;;5052166;28;20326;-69
2023/07/13 05:48:26;;;;;;;;;;;;;;;;;;5052211;28;19932;-69
2023/07/13 05:50:52;;;;;;;;;;;;;;;;;;5052029;28;19924;-69
2023/07/13 05:53:20;;;;;;;;;;;;;;;;;;5051981;28;19931;-69
2023/07/13 05:55:49;;;;;;;;;;;;;;;;;;5052411;28;19925;-69
2023/07/13 05:58:17;;;;;;;;;;;;;;;;;;5051931;28;20007;-69
2023/07/13 06:00:43;;;;;;;;;;;;;;;;;;5052009;28;19931;-69
2023/07/13 06:03:10;;;;;;;;;;;;;;;;;;5052113;28;19925;-69
2023/07/13 06:05:37;;;;;;;;;;;;;;;;;;5052021;28;19971;-69
2023/07/13 06:08:04;;;;;;;;;;;;;;;;;;5051984;28;19928;-69
2023/07/13 06:10:33;;;;;;;;;;;;;;;;;;5051959;28;19925;-69
2023/07/13 06:12:59;;;;;;;;;;;;;;;;;;5051865;28;19925;-69
2023/07/13 06:15:26;;;;;;;;;;;;;;;;;;5052618;28;20429;-69
2023/07/13 06:17:52;;;;;;;;;;;;;;;;;;5052318;28;19970;-67
2023/07/13 06:20:19;;;;;;;;;;;;;;;;;;5052759;28;20397;-68
2023/07/13 06:22:45;;;;;;;;;;;;;;;;;;5052861;28;19960;-67
2023/07/13 06:25:12;;;;;;;;;;;;;;;;;;5051960;28;19925;-68
2023/07/13 06:27:39;;;;;;;;;;;;;;;;;;5052068;28;20216;-68
2023/07/13 06:30:06;;;;;;;;;;;;;;;;;;5051196;28;19925;-67
2023/07/13 06:32:33;;;;;;;;;;;;;;;;;;5046638;28;19976;-69
2023/07/13 06:34:59;;;;;;;;;;;;;;;;;;5037313;28;19925;-67
2023/07/13 06:37:26;;;;;;;;;;;;;;;;;;5046964;28;20366;-65
2023/07/13 06:39:52;;;;;;;;;;;;;;;;;;5048771;28;20416;-66
2023/07/13 06:42:19;;;;;;;;;;;;;;;;;;5043444;28;20405;-67
2023/07/13 06:44:46;;;;;;;;;;;;;;;;;;5038594;28;19947;-68
2023/07/13 06:47:13;;;;;;;;;;;;;;;;;;5045197;28;20379;-68
2023/07/13 06:49:39;;;;;;;;;;;;;;;;;;5033635;28;19931;-68
2023/07/13 06:52:06;;;;;;;;;;;;;;;;;;5045357;28;19931;-69
2023/07/13 06:54:33;;;;;;;;;;;;;;;;;;5046465;28;19936;-68
2023/07/13 06:56:59;;;;;;;;;;;;;;;;;;5048578;28;19925;-70
2023/07/13 06:59:25;;;;;;;;;;;;;;;;;;5047331;28;19929;-69
2023/07/13 07:01:53;;;;;;;;;;;;;;;;;;5045115;28;19925;-71
2023/07/13 07:04:19;;;;;;;;;;;;;;;;;;5042093;28;19928;-70
2023/07/13 07:06:46;;;;;;;;;;;;;;;;;;5048975;28;19988;-70
2023/07/13 07:09:13;;;;;;;;;;;;;;;;;;5041909;28;20409;-68
2023/07/13 07:11:39;;;;;;;;;;;;;;;;;;5037816;28;19925;-68
2023/07/13 07:14:06;;;;;;;;;;;;;;;;;;5044955;28;19925;-70
2023/07/13 07:16:32;;;;;;;;;;;;;;;;;;5046935;28;19932;-70
2023/07/13 07:19:00;;;;;;;;;;;;;;;;;;5047831;28;19932;-69
2023/07/13 07:21:27;;;;;;;;;;;;;;;;;;5042260;28;20293;-69
2023/07/13 07:23:53;;;;;;;;;;;;;;;;;;5046704;28;19986;-69
2023/07/13 07:26:20;;;;;;;;;;;;;;;;;;5047046;28;20374;-70
2023/07/13 07:28:46;;;;;;;;;;;;;;;;;;5045674;28;19924;-71
2023/07/13 07:31:12;;;;;;;;;;;;;;;;;;5046156;28;19940;-73
2023/07/13 07:33:39;;;;;;;;;;;;;;;;;;5043776;28;20155;-70
2023/07/13 07:36:07;;;;;;;;;;;;;;;;;;5046860;28;19948;-69
2023/07/13 07:38:33;;;;;;;;;;;;;;;;;;5048849;28;20362;-69
2023/07/13 07:41:03;;;;;;;;;;;;;;;;;;5045979;28;19937;-68
2023/07/13 07:43:30;;;;;;;;;;;;;;;;;;5039723;28;19924;-68
2023/07/13 07:45:56;;;;;;;;;;;;;;;;;;5036970;28;19936;-68
2023/07/13 07:48:22;;;;;;;;;;;;;;;;;;5046036;28;19924;-68
2023/07/13 07:50:49;;;;;;;;;;;;;;;;;;5051573;28;19938;-63
2023/07/13 07:53:17;;;;;;;;;;;;;;;;;;5043578;28;19950;-67
2023/07/13 07:55:43;;;;;;;;;;;;;;;;;;5051387;28;19924;-68
2023/07/13 07:58:10;;;;;;;;;;;;;;;;;;5052300;28;19972;-66
2023/07/13 08:00:36;;;;;;;;;;;;;;;;;;5053369;28;19925;-67
2023/07/13 08:03:03;;;;;;;;;;;;;;;;;;5050104;28;20382;-66
2023/07/13 08:05:29;;;;;;;;;;;;;;;;;;5044087;28;19929;-67
2023/07/13 08:07:56;;;;;;;;;;;;;;;;;;5050481;28;19945;-66
2023/07/13 08:10:24;;;;;;;;;;;;;;;;;;5052679;28;19979;-66
2023/07/13 08:12:50;;;;;;;;;;;;;;;;;;5053688;28;19931;-66
2023/07/13 08:15:17;;;;;;;;;;;;;;;;;;5054106;28;19931;-67
2023/07/13 08:17:43;;;;;;;;;;;;;;;;;;5054116;28;20370;-67
2023/07/13 08:20:10;;;;;;;;;;;;;;;;;;5053154;28;19978;-67
2023/07/13 08:22:37;;;;;;;;;;;;;;;;;;5052148;28;20363;-66
2023/07/13 08:25:03;;;;;;;;;;;;;;;;;;5050340;28;20302;-66
2023/07/13 08:27:31;;;;;;;;;;;;;;;;;;5053280;28;19947;-65
2023/07/13 08:29:58;;;;;;;;;;;;;;;;;;5052985;28;19929;-67
2023/07/13 08:32:24;;;;;;;;;;;;;;;;;;5051694;28;19950;-67
2023/07/13 08:34:51;;;;;;;;;;;;;;;;;;5049560;28;20003;-67
2023/07/13 08:37:17;;;;;;;;;;;;;;;;;;5046096;28;20305;-66
2023/07/13 08:39:44;;;;;;;;;;;;;;;;;;5053124;28;19999;-68
2023/07/13 08:42:13;;;;;;;;;;;;;;;;;;5053091;28;19931;-66
2023/07/13 08:44:47;;;;;;;;;;;;;;;;;;5051776;28;19925;-66
2023/07/13 08:47:15;;;;;;;;;;;;;;;;;;5048389;28;20010;-65
2023/07/13 08:49:42;;;;;;;;;;;;;;;;;;5052530;28;19931;-66
2023/07/13 08:52:10;;;;;;;;;;;;;;;;;;5052919;28;19991;-67
2023/07/13 08:54:38;;;;;;;;;;;;;;;;;;5053027;28;19925;-67
2023/07/13 08:57:11;;;;;;;;;;;;;;;;;;5051514;28;20294;-66
2023/07/13 08:59:37;;;;;;;;;;;;;;;;;;5051084;28;20388;-67
2023/07/13 09:02:27;;;;;;;;;;;;;;;;;;5050064;28;19933;-65
2023/07/13 09:04:56;;;;;;;;;;;;;;;;;;5049642;28;20015;-67
2023/07/13 09:07:28;;;;;;;;;;;;;;;;;;5051052;28;19931;-67
2023/07/13 09:10:00;;;;;;;;;;;;;;;;;;5052870;28;19928;-66
2023/07/13 09:12:36;;;;;;;;;;;;;;;;;;5051523;28;19931;-67
2023/07/13 09:15:04;;;;;;;;;;;;;;;;;;5051683;28;19931;-66
2023/07/13 09:17:36;;;;;;;;;;;;;;;;;;5050304;28;20279;-67
2023/07/13 09:20:05;;;;;;;;;;;;;;;;;;5051949;28;19925;-67
2023/07/13 09:22:33;;;;;;;;;;;;;;;;;;5052588;28;19925;-66
2023/07/13 09:25:03;;;;;;;;;;;;;;;;;;5052944;28;19929;-70
2023/07/13 09:27:31;;;;;;;;;;;;;;;;;;5051704;28;19928;-66
2023/07/13 09:30:02;;;;;;;;;;;;;;;;;;5052185;28;19971;-66
2023/07/13 09:32:29;;;;;;;;;;;;;;;;;;5051782;28;19925;-67
2023/07/13 09:34:57;;;;;;;;;;;;;;;;;;5049817;28;19931;-67
2023/07/13 09:37:31;;;;;;;;;;;;;;;;;;5049391;28;20370;-66
2023/07/13 09:39:59;;;;;;;;;;;;;;;;;;5051677;28;20386;-68
2023/07/13 09:42:26;;;;;;;;;;;;;;;;;;5051719;28;20396;-66
2023/07/13 09:44:54;;;;;;;;;;;;;;;;;;5051438;28;20297;-68
2023/07/13 09:47:23;;;;;;;;;;;;;;;;;;5077984;22;19932;-69
2023/07/13 09:49:55;;;;;;;;;;;;;;;;;;5069821;28;20391;-69
2023/07/13 09:52:22;;;;;;;;;;;;;;;;;;5071679;28;19931;-70
2023/07/13 09:54:50;;;;;;;;;;;;;;;;;;5071889;28;19928;-69
2023/07/13 09:57:17;;;;;;;;;;;;;;;;;;5070429;28;19925;-69
2023/07/13 09:59:46;;;;;;;;;;;;;;;;;;5071445;28;19925;-69
2023/07/13 10:02:25;;;;;;;;;;;;;;;;;;5071421;28;19932;-69
2023/07/13 10:04:57;;;;;;;;;;;;;;;;;;5071507;28;19931;-69
2023/07/13 10:07:25;;;;;;;;;;;;;;;;;;5071006;28;19986;-68
2023/07/13 10:09:53;;;;;;;;;;;;;;;;;;5070509;28;20320;-69
2023/07/13 10:12:19;;;;;;;;;;;;;;;;;;5070501;28;19924;-68
2023/07/13 10:14:46;;;;;;;;;;;;;;;;;;5070449;28;20019;-69
2023/07/13 10:17:13;;;;;;;;;;;;;;;;;;5071313;28;19931;-70
2023/07/13 10:19:43;;;;;;;;;;;;;;;;;;5065188;28;19989;-67
2023/07/13 10:22:14;;;;;;;;;;;;;;;;;;5072023;28;20289;-70
2023/07/13 10:24:42;;;;;;;;;;;;;;;;;;5065129;28;19928;-65
2023/07/13 10:27:12;;;;;;;;;;;;;;;;;;5069663;28;19924;-65
2023/07/13 10:29:40;;;;;;;;;;;;;;;;;;5071688;28;19925;-65
2023/07/13 10:32:10;;;;;;;;;;;;;;;;;;5071383;28;19971;-66
2023/07/13 10:34:37;;;;;;;;;;;;;;;;;;5071553;28;19978;-66
2023/07/13 10:37:05;;;;;;;;;;;;;;;;;;5070974;28;19925;-65
2023/07/13 10:39:32;;;;;;;;;;;;;;;;;;5071134;28;19925;-66
2023/07/13 10:42:01;;;;;;;;;;;;;;;;;;5071642;28;19924;-64
2023/07/13 10:44:29;;;;;;;;;;;;;;;;;;5070269;28;19924;-65
2023/07/13 10:46:58;;;;;;;;;;;;;;;;;;5063300;28;19956;-65
2023/07/13 10:49:25;;;;;;;;;;;;;;;;;;5070132;28;20018;-65
2023/07/13 10:51:52;;;;;;;;;;;;;;;;;;5058235;28;20019;-66
2023/07/13 10:54:21;;;;;;;;;;;;;;;;;;5070201;28;19925;-65
2023/07/13 10:56:49;;;;;;;;;;;;;;;;;;5071536;28;20370;-65
2023/07/13 10:59:18;;;;;;;;;;;;;;;;;;5070728;28;20369;-65
2023/07/13 11:01:51;;;;;;;;;;;;;;;;;;5070878;28;19924;-65
2023/07/13 11:04:20;;;;;;;;;;;;;;;;;;5071049;28;20274;-66
2023/07/13 11:06:49;;;;;;;;;;;;;;;;;;5070408;28;19932;-66
2023/07/13 11:09:20;;;;;;;;;;;;;;;;;;5070412;28;19931;-66
2023/07/13 11:11:47;;;;;;;;;;;;;;;;;;5072976;28;19925;-65
2023/07/13 11:14:28;;;;;;;;;;;;;;;;;;5054610;28;19929;-65
2023/07/13 11:16:55;;;;;;;;;;;;;;;;;;5051203;28;19925;-66
2023/07/13 11:19:27;;;;;;;;;;;;;;;;;;5069776;28;19935;-65
2023/07/13 11:22:03;;;;;;;;;;;;;;;;;;5069792;28;20509;-65
2023/07/13 11:24:48;;;;;;;;;;;;;;;;;;5068303;28;20168;-66
2023/07/13 11:27:23;;;;;;;;;;;;;;;;;;5073526;28;19924;-65
2023/07/13 11:29:50;;;;;;;;;;;;;;;;;;5090752;28;19959;-66
2023/07/13 11:32:23;;;;;;;;;;;;;;;;;;5089866;28;19930;-66
2023/07/13 11:34:51;;;;;;;;;;;;;;;;;;5086471;28;20612;-67
2023/07/13 11:37:19;;;;;;;;;;;;;;;;;;5070326;28;20391;-66
2023/07/13 11:39:46;;;;;;;;;;;;;;;;;;5078957;28;19924;-66
2023/07/13 11:42:14;;;;;;;;;;;;;;;;;;5084026;28;19928;-65
2023/07/13 11:44:43;;;;;;;;;;;;;;;;;;5068696;28;19924;-68
2023/07/13 11:47:12;;;;;;;;;;;;;;;;;;5069939;28;19929;-67
2023/07/13 11:49:42;;;;;;;;;;;;;;;;;;5071413;28;19925;-66
2023/07/13 11:52:11;;;;;;;;;;;;;;;;;;5069215;28;20270;-67
2023/07/13 11:54:50;;;;;;;;;;;;;;;;;;5070184;28;19946;-67
2023/07/13 11:57:22;;;;;;;;;;;;;;;;;;5049352;28;20369;-66
2023/07/13 11:59:50;;;;;;;;;;;;;;;;;;5049863;28;19928;-66
2023/07/13 12:02:23;;;;;;;;;;;;;;;;;;5049831;28;20377;-65
2023/07/13 12:04:52;;;;;;;;;;;;;;;;;;5050364;28;20007;-66
2023/07/13 12:07:19;;;;;;;;;;;;;;;;;;5049782;28;19936;-65
2023/07/13 12:09:46;;;;;;;;;;;;;;;;;;5049830;28;19948;-67
2023/07/13 12:12:13;;;;;;;;;;;;;;;;;;5049817;28;19929;-66
2023/07/13 12:14:40;;;;;;;;;;;;;;;;;;5056769;28;20435;-67
2023/07/13 12:17:10;;;;;;;;;;;;;;;;;;5059543;28;20049;-65
2023/07/13 12:19:37;;;;;;;;;;;;;;;;;;5057222;28;19970;-67
2023/07/13 12:22:04;;;;;;;;;;;;;;;;;;5062044;28;20271;-67
2023/07/13 12:24:31;;;;;;;;;;;;;;;;;;5053073;28;19925;-66
2023/07/13 12:27:00;;;;;;;;;;;;;;;;;;5063886;28;19939;-67
2023/07/13 12:29:27;;;;;;;;;;;;;;;;;;5064052;28;19932;-66
2023/07/13 12:31:53;;;;;;;;;;;;;;;;;;5063909;28;20026;-67
2023/07/13 12:34:20;;;;;;;;;;;;;;;;;;5066681;28;19925;-67
2023/07/13 12:36:50;;;;;;;;;;;;;;;;;;5067415;28;20335;-67
2023/07/13 12:39:18;;;;;;;;;;;;;;;;;;5065223;28;19924;-66
2023/07/13 12:41:45;;;;;;;;;;;;;;;;;;5066501;28;19929;-67
2023/07/13 12:44:13;;;;;;;;;;;;;;;;;;5065943;28;19925;-67
2023/07/13 12:46:39;;;;;;;;;;;;;;;;;;5067685;28;20016;-66
2023/07/13 12:49:06;;;;;;;;;;;;;;;;;;5071723;28;19924;-66
2023/07/13 12:51:33;;;;;;;;;;;;;;;;;;5064145;28;19993;-66
2023/07/13 12:54:07;;;;;;;;;;;;;;;;;;5068029;28;19924;-67
2023/07/13 12:56:34;;;;;;;;;;;;;;;;;;5060949;28;20392;-66
2023/07/13 12:59:02;;;;;;;;;;;;;;;;;;5060809;28;19928;-66
2023/07/13 13:01:29;;;;;;;;;;;;;;;;;;5060645;28;19932;-66
2023/07/13 13:03:56;;;;;;;;;;;;;;;;;;5067306;28;20242;-66
2023/07/13 13:06:24;;;;;;;;;;;;;;;;;;5060609;28;19928;-66
2023/07/13 13:08:51;;;;;;;;;;;;;;;;;;5069031;28;19971;-67
2023/07/13 13:11:19;;;;;;;;;;;;;;;;;;5069982;28;19929;-67
2023/07/13 13:13:46;;;;;;;;;;;;;;;;;;5066806;28;19935;-67
2023/07/13 13:16:15;;;;;;;;;;;;;;;;;;5066262;28;19987;-67
2023/07/13 13:18:42;;;;;;;;;;;;;;;;;;5064013;28;19925;-67
2023/07/13 13:21:09;;;;;;;;;;;;;;;;;;5068403;28;19924;-66
2023/07/13 13:23:35;;;;;;;;;;;;;;;;;;5062088;28;19931;-66
2023/07/13 13:26:02;;;;;;;;;;;;;;;;;;5055052;28;19924;-67
2023/07/13 13:28:30;;;;;;;;;;;;;;;;;;5065776;28;19924;-66
2023/07/13 13:30:56;;;;;;;;;;;;;;;;;;5063416;28;19931;-67
2023/07/13 13:33:23;;;;;;;;;;;;;;;;;;5069943;28;19929;-67
2023/07/13 13:35:49;;;;;;;;;;;;;;;;;;5067660;28;20296;-66
2023/07/13 13:38:17;;;;;;;;;;;;;;;;;;5059511;28;19931;-66
2023/07/13 13:40:44;;;;;;;;;;;;;;;;;;5063815;28;20370;-67
2023/07/13 13:43:15;;;;;;;;;;;;;;;;;;5068488;28;20437;-66
2023/07/13 13:45:43;;;;;;;;;;;;;;;;;;5071722;28;19928;-66
2023/07/13 13:48:14;;;;;;;;;;;;;;;;;;5066610;28;19939;-67
2023/07/13 13:50:41;;;;;;;;;;;;;;;;;;5067217;28;19931;-66
2023/07/13 13:53:08;;;;;;;;;;;;;;;;;;5071182;28;19925;-67
2023/07/13 13:55:35;;;;;;;;;;;;;;;;;;5069328;28;20298;-66
2023/07/13 13:58:02;;;;;;;;;;;;;;;;;;5063763;28;19935;-67
2023/07/13 14:00:28;;;;;;;;;;;;;;;;;;5070691;28;19924;-66
2023/07/13 14:02:57;;;;;;;;;;;;;;;;;;5068570;28;20308;-66
2023/07/13 14:05:26;;;;;;;;;;;;;;;;;;5059094;28;19939;-67
2023/07/13 14:07:53;;;;;;;;;;;;;;;;;;5070424;28;20348;-66
2023/07/13 14:10:20;;;;;;;;;;;;;;;;;;5071001;28;20428;-67
2023/07/13 14:12:48;;;;;;;;;;;;;;;;;;5071386;28;19931;-67
2023/07/13 14:15:18;;;;;;;;;;;;;;;;;;5068409;28;19924;-66
2023/07/13 14:17:45;;;;;;;;;;;;;;;;;;5069737;28;19931;-67
2023/07/13 14:20:13;;;;;;;;;;;;;;;;;;5067701;28;19931;-66
2023/07/13 14:22:40;;;;;;;;;;;;;;;;;;5062691;28;19931;-67
2023/07/13 14:25:07;;;;;;;;;;;;;;;;;;5064910;28;19924;-67
2023/07/13 14:27:33;;;;;;;;;;;;;;;;;;5070400;28;19998;-66
2023/07/13 14:29:59;;;;;;;;;;;;;;;;;;5062135;28;19932;-67
2023/07/13 14:32:26;;;;;;;;;;;;;;;;;;5067911;28;19935;-67
2023/07/13 14:34:52;;;;;;;;;;;;;;;;;;5050542;28;20383;-66
2023/07/13 14:37:20;;;;;;;;;;;;;;;;;;5051618;28;19933;-67
2023/07/13 14:39:49;;;;;;;;;;;;;;;;;;5050312;28;19972;-67
2023/07/13 14:42:16;;;;;;;;;;;;;;;;;;5051573;28;19924;-66
2023/07/13 14:44:42;;;;;;;;;;;;;;;;;;5051206;28;20283;-67
2023/07/13 14:47:09;;;;;;;;;;;;;;;;;;5051081;28;19928;-67
2023/07/13 14:49:37;;;;;;;;;;;;;;;;;;5050764;28;20304;-67
2023/07/13 14:52:07;;;;;;;;;;;;;;;;;;5054795;28;19931;-68
2023/07/13 14:54:34;;;;;;;;;;;;;;;;;;5071196;28;20386;-67
2023/07/13 14:57:01;;;;;;;;;;;;;;;;;;5070483;28;19924;-67
2023/07/13 14:59:28;;;;;;;;;;;;;;;;;;5070328;28;19931;-67
2023/07/13 15:01:54;;;;;;;;;;;;;;;;;;5070449;28;19928;-65
2023/07/13 15:04:21;;;;;;;;;;;;;;;;;;5071488;28;20007;-66
2023/07/13 15:06:54;;;;;;;;;;;;;;;;;;5070221;28;19925;-67
2023/07/13 15:09:20;;;;;;;;;;;;;;;;;;5070997;28;19924;-66
2023/07/13 15:11:48;;;;;;;;;;;;;;;;;;5056272;28;20023;-66
2023/07/13 15:14:14;;;;;;;;;;;;;;;;;;5051183;28;20378;-67
2023/07/13 15:16:41;;;;;;;;;;;;;;;;;;5050453;28;20294;-67
2023/07/13 15:19:10;;;;;;;;;;;;;;;;;;5051074;28;20027;-67
2023/07/13 15:21:36;;;;;;;;;;;;;;;;;;5050222;28;20020;-67
2023/07/13 15:24:03;;;;;;;;;;;;;;;;;;5050276;28;19925;-67
2023/07/13 15:26:29;;;;;;;;;;;;;;;;;;5050563;28;19954;-67
2023/07/13 15:28:57;;;;;;;;;;;;;;;;;;5050368;28;20405;-66
2023/07/13 15:31:24;;;;;;;;;;;;;;;;;;5050491;28;19925;-67
2023/07/13 15:33:52;;;;;;;;;;;;;;;;;;5050460;28;19925;-67
2023/07/13 15:36:19;;;;;;;;;;;;;;;;;;5050644;28;19925;-67
2023/07/13 15:38:47;;;;;;;;;;;;;;;;;;5049849;28;19924;-67
2023/07/13 15:41:17;;;;;;;;;;;;;;;;;;5050137;28;19932;-65
2023/07/13 15:43:45;;;;;;;;;;;;;;;;;;5049885;28;19925;-66
2023/07/13 15:46:13;;;;;;;;;;;;;;;;;;5050477;28;19925;-68
2023/07/13 15:48:40;;;;;;;;;;;;;;;;;;5050149;28;19932;-68
2023/07/13 15:51:11;;;;;;;;;;;;;;;;;;5050125;28;19936;-68
2023/07/13 15:53:39;;;;;;;;;;;;;;;;;;5050113;28;19929;-68
2023/07/13 15:56:12;;;;;;;;;;;;;;;;;;5050756;28;20317;-67
2023/07/13 15:58:38;;;;;;;;;;;;;;;;;;5050139;28;19931;-67
2023/07/13 16:01:05;;;;;;;;;;;;;;;;;;5050257;28;19994;-67
2023/07/13 16:03:34;;;;;;;;;;;;;;;;;;5050834;28;20263;-67
2023/07/13 16:06:00;;;;;;;;;;;;;;;;;;5050111;28;19928;-68
2023/07/13 16:08:28;;;;;;;;;;;;;;;;;;5050918;28;20396;-67
2023/07/13 16:10:55;;;;;;;;;;;;;;;;;;5053627;28;20426;-67
2023/07/13 16:13:24;;;;;;;;;;;;;;;;;;5072408;28;20346;-67
2023/07/13 16:15:51;;;;;;;;;;;;;;;;;;5073787;28;19924;-67
2023/07/13 16:18:18;;;;;;;;;;;;;;;;;;5074243;28;20003;-68
2023/07/13 16:20:46;;;;;;;;;;;;;;;;;;5072934;28;19975;-67
2023/07/13 16:23:14;;;;;;;;;;;;;;;;;;5074384;28;20275;-67
2023/07/13 16:25:40;;;;;;;;;;;;;;;;;;5073613;28;19924;-68
2023/07/13 16:28:07;;;;;;;;;;;;;;;;;;5074147;28;19930;-67
2023/07/13 16:30:34;;;;;;;;;;;;;;;;;;5072998;28;19954;-68
2023/07/13 16:33:04;;;;;;;;;;;;;;;;;;5073677;28;19979;-68
2023/07/13 16:35:34;;;;;;;;;;;;;;;;;;5074078;28;20042;-68
2023/07/13 16:38:02;;;;;;;;;;;;;;;;;;5074000;28;19964;-68
2023/07/13 16:40:30;;;;;;;;;;;;;;;;;;5073607;28;20332;-67
2023/07/13 16:42:57;;;;;;;;;;;;;;;;;;5073131;28;19924;-68
2023/07/13 16:45:25;;;;;;;;;;;;;;;;;;5073651;28;19924;-68
2023/07/13 16:47:51;;;;;;;;;;;;;;;;;;5073494;28;19929;-68